KMOP/MOP METAR and TAF weather

Enter ICAO airport designator
Station Type Date Time Source
KMOP METAR 2019/08/20 09:39 UTC NOAA

KMOP 200939Z AUTO 00000KT 10SM SCT038 BKN048 17/17 A3007 RMK AO2 T01650165


Station Type Date Time Source
KMOP Decoded METAR 2019/08/20 09:39 UTC NOAA

Mount Pleasant, Mount Pleasant Municipal Airport, MI, United States (KMOP) 43-37N 84-44W
Aug 20, 2019 - 05:39 AM EDT / 2019.08.20 0939 UTC
Wind: Calm:0
Visibility: 10 mile(s):0
Sky conditions: mostly cloudy
Temperature: 61.7 F (16.5 C)
Dew Point: 61.7 F (16.5 C)
Relative Humidity: 100%
Pressure (altimeter): 30.07 in. Hg (1018 hPa)
ob: KMOP 200939Z AUTO 00000KT 10SM SCT038 BKN048 17/17 A3007 RMK AO2 T01650165
cycle: 9

Station Type Date Time Source
KMOP TAF UTC NOAA

Error!

Example: see airport list